createdAt,value
2022-08-12T00:07:10.080Z,9.70
2022-08-12T00:17:32.333Z,9.60
2022-08-12T00:27:54.606Z,9.50
2022-08-12T00:38:15.742Z,9.40
2022-08-12T00:48:21.306Z,9.30
2022-08-12T00:58:28.669Z,9.10
2022-08-12T01:08:51.145Z,9.00
2022-08-12T01:18:57.402Z,8.90
2022-08-12T01:29:03.347Z,8.70
2022-08-12T01:39:06.898Z,8.70
2022-08-12T01:49:32.370Z,8.70
2022-08-12T01:59:59.276Z,8.70
2022-08-12T02:10:51.285Z,8.60
2022-08-12T02:21:03.152Z,8.60
2022-08-12T02:31:11.091Z,8.50
2022-08-12T02:41:17.120Z,8.40
2022-08-12T02:51:25.532Z,8.30
2022-08-12T03:01:34.329Z,8.30
2022-08-12T03:11:49.002Z,8.30
2022-08-12T03:22:09.227Z,8.40
2022-08-12T03:32:36.099Z,8.80
2022-08-12T03:42:43.036Z,9.30
2022-08-12T03:53:05.700Z,9.60
2022-08-12T04:03:31.641Z,9.60
2022-08-12T04:13:36.677Z,9.50
2022-08-12T04:23:46.357Z,9.50
2022-08-12T04:33:53.266Z,9.70
2022-08-12T04:44:02.002Z,10.00
2022-08-12T04:54:07.323Z,10.40
2022-08-12T05:04:11.673Z,11.00
2022-08-12T05:14:18.553Z,11.50
2022-08-12T05:24:21.921Z,12.20
2022-08-12T05:34:29.733Z,12.50
2022-08-12T05:44:33.101Z,12.70
2022-08-12T05:54:56.962Z,13.50
2022-08-12T06:05:02.642Z,14.70
2022-08-12T06:15:08.964Z,15.00
2022-08-12T06:25:17.565Z,16.10
2022-08-12T06:35:49.518Z,16.10
2022-08-12T06:45:49.712Z,16.60
2022-08-12T06:55:57.909Z,17.60
2022-08-12T07:06:05.119Z,19.40
2022-08-12T07:16:12.094Z,21.30
2022-08-12T07:26:19.776Z,23.20
2022-08-12T07:36:25.571Z,25.30
2022-08-12T07:46:32.254Z,27.20
2022-08-12T07:56:40.191Z,29.70
2022-08-12T08:06:44.837Z,30.70
2022-08-12T08:16:49.834Z,31.60
2022-08-12T08:26:56.642Z,33.90
2022-08-12T08:37:04.716Z,36.20
2022-08-12T08:47:13.590Z,35.40
2022-08-12T08:57:19.079Z,37.10
2022-08-12T09:07:51.991Z,39.70
2022-08-12T09:17:57.043Z,38.50
2022-08-12T09:28:05.232Z,42.20
2022-08-12T09:38:25.547Z,41.60
2022-08-12T09:48:35.238Z,43.00
2022-08-12T09:58:57.646Z,46.00
2022-08-12T10:09:02.852Z,47.10
2022-08-12T10:19:17.492Z,48.40
2022-08-12T10:30:03.171Z,49.50
2022-08-12T10:40:09.355Z,51.20
2022-08-12T10:50:35.828Z,52.70
2022-08-12T11:00:55.453Z,53.30
2022-08-12T11:11:13.269Z,53.40
2022-08-12T11:21:18.786Z,51.20
2022-08-12T11:31:22.106Z,54.00
2022-08-12T11:41:30.879Z,55.30
2022-08-12T11:51:36.521Z,55.70
2022-08-12T12:02:01.923Z,53.40
2022-08-12T12:12:08.738Z,53.50
2022-08-12T12:22:15.821Z,54.10
2022-08-12T12:32:29.231Z,52.40
2022-08-12T12:42:43.281Z,53.10
2022-08-12T12:52:57.725Z,49.50
2022-08-12T13:03:03.933Z,50.60
2022-08-12T13:14:09.714Z,50.60
2022-08-12T13:23:36.236Z,48.70
2022-08-12T13:34:32.131Z,37.80
2022-08-12T13:44:10.432Z,33.60
2022-08-12T13:54:14.269Z,31.10
2022-08-12T14:04:19.293Z,29.30
2022-08-12T14:14:23.581Z,28.30
2022-08-12T14:24:40.423Z,27.40
2022-08-12T14:34:44.312Z,26.80
2022-08-12T14:44:57.267Z,26.00
2022-08-12T15:06:04.809Z,25.40
2022-08-12T15:15:53.117Z,25.20
2022-08-12T15:26:02.657Z,24.90
2022-08-12T15:36:08.827Z,24.60
2022-08-12T15:46:15.883Z,24.10
2022-08-12T15:56:19.600Z,23.90
2022-08-12T16:16:58.439Z,23.60
2022-08-12T16:27:05.328Z,23.30
2022-08-12T16:37:09.495Z,23.00
2022-08-12T16:47:15.658Z,22.80
2022-08-12T16:57:34.846Z,22.60
2022-08-12T17:07:43.515Z,22.40
2022-08-12T17:17:47.421Z,22.10
2022-08-12T17:27:57.316Z,21.90
2022-08-12T17:38:04.168Z,21.80
2022-08-12T17:48:11.874Z,21.50
2022-08-12T17:58:35.682Z,21.20
2022-08-12T18:08:54.355Z,21.00
2022-08-12T18:19:02.035Z,20.80
2022-08-12T18:29:06.908Z,20.50
2022-08-12T18:39:10.320Z,20.00
2022-08-12T18:49:20.030Z,19.50
2022-08-12T19:00:00.998Z,19.00
2022-08-12T19:10:00.083Z,18.70
2022-08-12T19:20:11.293Z,18.30
2022-08-12T19:30:36.747Z,17.90
2022-08-12T19:40:42.982Z,17.70
2022-08-12T19:50:53.818Z,17.40
2022-08-12T20:00:57.226Z,17.50
2022-08-12T20:12:09.043Z,17.50
2022-08-12T20:21:25.562Z,17.50
2022-08-12T20:31:46.005Z,17.80
2022-08-12T20:41:58.930Z,17.60
2022-08-12T20:52:06.666Z,17.50
2022-08-12T21:02:12.699Z,17.20
2022-08-12T21:12:28.695Z,17.00
2022-08-12T21:22:38.548Z,16.80
2022-08-12T21:32:43.488Z,16.70
2022-08-12T21:42:51.149Z,16.60
2022-08-12T21:52:57.711Z,16.50
2022-08-12T22:03:15.225Z,16.50
2022-08-12T22:14:07.632Z,16.30
2022-08-12T22:23:52.081Z,16.10
2022-08-12T22:34:10.485Z,15.90
2022-08-12T22:44:52.904Z,15.70
2022-08-12T22:55:04.151Z,15.60
2022-08-12T23:05:10.496Z,15.50
2022-08-12T23:15:15.607Z,15.70
2022-08-12T23:25:21.297Z,15.70
2022-08-12T23:35:28.443Z,15.80
2022-08-12T23:46:01.013Z,16.10
2022-08-12T23:56:06.561Z,16.30
